Flight Track Log - Related Links

Times and Time Zones

All times are in EDT time to prevent confusion due to time zone crossing. See the N612FE flight status page for this flight to view local times or setup timezone preferences in your user account.

Time Position Orientation Groundspeed Altitude Reporting Facility
EDT Latitude Longitude Course Direction KTS MPH feet Rate Location/Type
Tue 04:39:24 AM 35.0500 -89.9833 331° Northwest 174 200 1,600  Level KMEM
Tue 04:40:18 AM 35.1000 -90.0167 331° Northwest 245 282 4,100 3,684 Climbing KMEM
Tue 04:41:18 AM 35.1167 -90.1000 284° West 259 298 8,600 3,138 Climbing KMEM
Tue 04:46:50 AM 35.1780 -90.7720 284° West 418 481 24,600 2,862 Climbing FlightAware ADS-B
Tue 04:47:27 AM 35.1940 -90.8600 283° West 433 498 26,200 3,304 Climbing FlightAware ADS-B
Tue 04:47:59 AM 35.2100 -90.9340 285° West 417 480 28,400 2,687 Climbing FlightAware ADS-B
Tue 04:48:34 AM 35.2290 -91.0180 286° West 437 503 29,200 1,944 Climbing FlightAware ADS-B
Tue 04:49:10 AM 35.2470 -91.1010 285° West 436 502 30,700 2,647 Climbing FlightAware ADS-B
Tue 04:49:42 AM 35.2640 -91.1770 285° West 432 497 32,200 2,294 Climbing FlightAware ADS-B
Tue 04:50:18 AM 35.2830 -91.2590 286° West 433 498 33,300 1,890 Climbing FlightAware ADS-B
Tue 04:50:55 AM 35.3030 -91.3500 285° West 434 499 34,500 2,189 Climbing FlightAware ADS-B
Tue 04:51:32 AM 35.3220 -91.4380 285° West 421 484 36,000 1,629 Climbing FlightAware ADS-B
Tue 04:52:05 AM 35.3380 -91.5130 285° West 431 496 36,400 870 Climbing FlightAware ADS-B
Tue 04:52:41 AM 35.3570 -91.5990 285° West 436 502 37,000 1,268 Climbing FlightAware ADS-B
Tue 04:53:16 AM 35.3760 -91.6830 286° West 428 493 37,900 870 Climbing FlightAware ADS-B
Tue 04:53:50 AM 35.3920 -91.7590 285° West 437 503 38,000 86 Climbing FlightAware ADS-B
Tue 04:54:26 AM 35.4110 -91.8480 285° West 441 507 38,000  Level FlightAware ADS-B
Tue 04:55:03 AM 35.4310 -91.9370 285° West 440 506 38,000  Level FlightAware ADS-B
Tue 04:55:34 AM 35.4470 -92.0150 284° West 443 510 38,000  Level FlightAware ADS-B
Tue 04:56:10 AM 35.4650 -92.1000 285° West 444 511 38,000  Level FlightAware ADS-B
Tue 04:56:47 AM 35.4850 -92.1900 285° West 443 510 38,000  Level FlightAware ADS-B
Tue 04:57:23 AM 35.5040 -92.2800 285° West 443 510 38,000  Level FlightAware ADS-B
Tue 04:57:55 AM 35.5190 -92.3530 284° West 445 512 38,000  Level FlightAware ADS-B
Tue 04:58:30 AM 35.5380 -92.4410 285° West 444 511 38,000  Level FlightAware ADS-B
Tue 04:59:07 AM 35.5570 -92.5310 285° West 445 512 38,000  Level FlightAware ADS-B
Tue 04:59:43 AM 35.5760 -92.6220 284° West 447 514 38,000  Level FlightAware ADS-B
Tue 05:00:14 AM 35.5920 -92.6980 285° West 448 516 38,000 88 Level FlightAware ADS-B
Tue 05:00:51 AM 35.6110 -92.7900 284° West 446 513 38,100 82 Climbing FlightAware ADS-B
Tue 05:01:27 AM 35.6290 -92.8780 284° West 446 513 38,100 -83 Level FlightAware ADS-B
Tue 05:02:03 AM 35.6470 -92.9640 284° West 447 514 38,000 -88 Descending FlightAware ADS-B
Tue 05:02:35 AM 35.6630 -93.0430 284° West 448 516 38,000  Level FlightAware ADS-B
Tue 05:03:10 AM 35.6810 -93.1290 284° West 449 517 38,000  Level FlightAware ADS-B
Tue 05:03:46 AM 35.6990 -93.2210 284° West 447 514 38,000  Level FlightAware ADS-B
Tue 05:04:19 AM 35.7160 -93.3000 285° West 447 514 38,000  Level FlightAware ADS-B
Tue 05:04:56 AM 35.7340 -93.3910 284° West 447 514 38,000  Level FlightAware ADS-B
Tue 05:05:33 AM 35.7530 -93.4850 284° West 447 514 38,000  Level FlightAware ADS-B
Tue 05:06:05 AM 35.7680 -93.5620 284° West 446 513 38,000  Level FlightAware ADS-B
Tue 05:06:42 AM 35.7870 -93.6560 284° West 446 513 38,000  Level FlightAware ADS-B
Tue 05:07:17 AM 35.8040 -93.7400 284° West 446 513 38,000  Level FlightAware ADS-B
Tue 05:07:49 AM 35.8200 -93.8210 284° West 446 513 38,000  Level FlightAware ADS-B
Tue 05:08:22 AM 35.8350 -93.9000 283° West 446 513 38,000  Level FlightAware ADS-B
Tue 05:09:01 AM 35.8540 -93.9960 284° West 447 514 38,000  Level FlightAware ADS-B
Tue 05:09:38 AM 35.8720 -94.0880 284° West 448 516 38,000  Level FlightAware ADS-B
Tue 05:10:12 AM 35.8890 -94.1730 284° West 450 518 38,000  Level FlightAware ADS-B
Tue 05:10:43 AM 35.9040 -94.2520 283° West 451 519 38,000  Level FlightAware ADS-B
Tue 05:11:09 AM 35.9150 -94.3080 284° West 451 519 38,000  Level FlightAware ADS-B
Tue 05:12:02 AM 35.9420 -94.4450 284° West 452 520 38,000 67 Level FlightAware ADS-B
Tue 05:12:39 AM 35.9590 -94.5390 283° West 453 521 38,100 86 Climbing FlightAware ADS-B
Tue 05:13:12 AM 35.9760 -94.6240 284° West 453 521 38,100  Level FlightAware ADS-B
Tue 05:13:42 AM 35.9900 -94.7020 283° West 453 521 38,100  Level FlightAware ADS-B
Tue 05:14:22 AM 36.0100 -94.8030 284° West 455 524 38,100  Level FlightAware ADS-B
Tue 05:15:00 AM 36.0270 -94.8970 283° West 453 521 38,100 -86 Level FlightAware ADS-B
Tue 05:15:32 AM 36.0420 -94.9750 283° West 450 518 38,000 -87 Descending FlightAware ADS-B
Tue 05:16:09 AM 36.0590 -95.0670 283° West 449 517 38,000  Level FlightAware ADS-B
Tue 05:16:42 AM 36.0750 -95.1540 283° West 445 512 38,000  Level FlightAware ADS-B
Tue 05:17:16 AM 36.0900 -95.2360 283° West 444 511 38,000  Level FlightAware ADS-B
Tue 05:17:52 AM 36.1070 -95.3250 283° West 442 509 38,000  Level FlightAware ADS-B
Tue 05:18:28 AM 36.1230 -95.4140 283° West 441 507 38,000  Level FlightAware ADS-B
Tue 05:19:02 AM 36.1390 -95.5000 283° West 442 509 38,000  Level FlightAware ADS-B
Tue 05:19:36 AM 36.1520 -95.5770 282° West 443 510 38,000  Level FlightAware ADS-B
Tue 05:20:14 AM 36.1700 -95.6760 283° West 444 511 38,000  Level FlightAware ADS-B
Tue 05:20:50 AM 36.1870 -95.7650 283° West 445 512 38,000  Level FlightAware ADS-B
Tue 05:21:20 AM 36.2000 -95.8370 283° West 445 512 38,000 88 Level FlightAware ADS-B
Tue 05:21:58 AM 36.2170 -95.9310 283° West 444 511 38,100 81 Climbing FlightAware ADS-B
Tue 05:22:34 AM 36.2330 -96.0230 282° West 445 512 38,100  Level FlightAware ADS-B
Tue 05:23:10 AM 36.2490 -96.1150 282° West 444 511 38,100  Level FlightAware ADS-B
Tue 05:23:39 AM 36.2620 -96.1870 283° West 442 509 38,100  Level FlightAware ADS-B
Tue 05:24:17 AM 36.2780 -96.2810 282° West 439 505 38,100 -80 Level FlightAware ADS-B
Tue 05:24:54 AM 36.2940 -96.3720 282° West 436 502 38,000 -83 Descending FlightAware ADS-B
Tue 05:25:29 AM 36.3090 -96.4570 282° West 437 503 38,000  Level FlightAware ADS-B
Tue 05:26:02 AM 36.3230 -96.5380 282° West 437 503 38,000  Level FlightAware ADS-B
Tue 05:26:36 AM 36.3370 -96.6210 282° West 436 502 38,000  Level FlightAware ADS-B
Tue 05:27:14 AM 36.3520 -96.7070 282° West 435 501 38,000  Level FlightAware ADS-B
Tue 05:27:50 AM 36.3680 -96.8020 282° West 435 501 38,000  Level FlightAware ADS-B
Tue 05:28:20 AM 36.3800 -96.8760 281° West 435 501 38,000  Level FlightAware ADS-B
Tue 05:28:59 AM 36.3970 -96.9710 283° West 437 503 38,000  Level FlightAware ADS-B
Tue 05:29:34 AM 36.4110 -97.0540 282° West 437 503 38,000  Level FlightAware ADS-B
Tue 05:30:06 AM 36.4240 -97.1350 281° West 437 503 38,000  Level FlightAware ADS-B
Tue 05:30:45 AM 36.4400 -97.2320 282° West 438 504 38,000  Level FlightAware ADS-B
Tue 05:31:16 AM 36.4520 -97.3060 281° West 439 505 38,000  Level FlightAware ADS-B
Tue 05:31:53 AM 36.4680 -97.3970 282° West 439 505 38,000  Level FlightAware ADS-B
Tue 05:32:29 AM 36.4830 -97.4890 281° West 440 506 38,000  Level FlightAware ADS-B
Tue 05:33:02 AM 36.4960 -97.5700 281° West 441 507 38,000  Level FlightAware ADS-B
Tue 05:33:35 AM 36.5100 -97.6520 282° West 440 506 38,000  Level FlightAware ADS-B
Tue 05:34:12 AM 36.5240 -97.7440 281° West 441 507 38,000  Level FlightAware ADS-B
Tue 05:34:50 AM 36.5390 -97.8360 281° West 442 509 38,000  Level FlightAware ADS-B
Tue 05:35:22 AM 36.5520 -97.9190 281° West 443 510 38,000  Level FlightAware ADS-B
Tue 05:35:59 AM 36.5670 -98.0110 282° West 444 511 38,000  Level FlightAware ADS-B
Tue 05:36:31 AM 36.5800 -98.0910 281° West 443 510 38,000  Level FlightAware ADS-B
Tue 05:37:08 AM 36.5950 -98.1840 281° West 442 509 38,000  Level FlightAware ADS-B
Tue 05:37:40 AM 36.6070 -98.2630 281° West 443 510 38,000  Level FlightAware ADS-B
Tue 05:38:17 AM 36.6210 -98.3560 281° West 442 509 38,000  Level FlightAware ADS-B
Tue 05:38:51 AM 36.6350 -98.4410 282° West 442 509 38,000  Level FlightAware ADS-B
Tue 05:39:29 AM 36.6500 -98.5360 281° West 441 507 38,000  Level FlightAware ADS-B
Tue 05:40:03 AM 36.6630 -98.6200 281° West 440 506 38,000  Level FlightAware ADS-B
Tue 05:40:38 AM 36.6760 -98.7050 281° West 440 506 38,000  Level FlightAware ADS-B
Tue 05:41:15 AM 36.6900 -98.7990 281° West 439 505 38,000  Level FlightAware ADS-B
Tue 05:41:45 AM 36.7010 -98.8710 281° West 438 504 38,000  Level FlightAware ADS-B
Tue 05:42:22 AM 36.7150 -98.9660 280° West 438 504 38,000  Level FlightAware ADS-B
Tue 05:42:56 AM 36.7280 -99.0500 281° West 437 503 38,000  Level FlightAware ADS-B
Tue 05:43:33 AM 36.7420 -99.1410 281° West 437 503 38,000  Level FlightAware ADS-B
Tue 05:44:10 AM 36.7550 -99.2330 280° West 437 503 38,000  Level FlightAware ADS-B
Tue 05:44:45 AM 36.7670 -99.3170 280° West 436 502 38,000  Level FlightAware ADS-B
Tue 05:45:15 AM 36.7790 -99.3940 281° West 436 502 38,000  Level FlightAware ADS-B
Tue 05:45:54 AM 36.7930 -99.4900 280° West 435 501 38,000  Level FlightAware ADS-B
Tue 05:46:30 AM 36.8060 -99.5790 280° West 434 499 38,000  Level FlightAware ADS-B
Tue 05:47:03 AM 36.8180 -99.6600 281° West 433 498 38,000  Level FlightAware ADS-B
Tue 05:47:40 AM 36.8310 -99.7510 280° West 434 499 38,000  Level FlightAware ADS-B
Tue 05:48:16 AM 36.8430 -99.8400 280° West 433 498 38,000  Level FlightAware ADS-B
Tue 05:48:47 AM 36.8540 -99.9140 281° West 433 498 38,000  Level FlightAware ADS-B
Tue 05:49:24 AM 36.8670 -100.0050 280° West 433 498 38,000  Level FlightAware ADS-B
Tue 05:50:00 AM 36.8800 -100.0960 280° West 433 498 38,000  Level FlightAware ADS-B
Tue 05:50:35 AM 36.8920 -100.1820 280° West 433 498 38,000  Level FlightAware ADS-B
Tue 05:51:09 AM 36.9030 -100.2610 280° West 433 498 38,000  Level FlightAware ADS-B
Tue 05:51:45 AM 36.9150 -100.3500 280° West 433 498 38,000  Level FlightAware ADS-B
Tue 05:52:21 AM 36.9280 -100.4430 280° West 433 498 38,000  Level FlightAware ADS-B
Tue 05:52:57 AM 36.9390 -100.5270 279° West 433 498 38,000  Level FlightAware ADS-B
Tue 05:53:28 AM 36.9500 -100.6080 280° West 432 497 38,000  Level FlightAware ADS-B
Tue 05:54:06 AM 36.9630 -100.7000 280° West 433 498 38,000  Level FlightAware ADS-B
Tue 05:54:42 AM 36.9750 -100.7910 279° West 433 498 38,000  Level FlightAware ADS-B
Tue 05:55:13 AM 36.9850 -100.8650 280° West 433 498 38,000  Level FlightAware ADS-B
Tue 05:55:49 AM 36.9970 -100.9570 279° West 434 499 38,000  Level FlightAware ADS-B
Tue 05:56:26 AM 37.0090 -101.0460 280° West 434 499 38,000  Level FlightAware ADS-B
Tue 05:56:57 AM 37.0190 -101.1250 279° West 434 499 38,000  Level FlightAware ADS-B
Tue 05:57:32 AM 37.0310 -101.2090 280° West 435 501 38,000  Level FlightAware ADS-B
Tue 05:58:10 AM 37.0430 -101.3060 279° West 435 501 38,000  Level FlightAware ADS-B
Tue 05:58:46 AM 37.0550 -101.3960 280° West 436 502 38,000  Level FlightAware ADS-B
Tue 05:59:17 AM 37.0640 -101.4710 279° West 436 502 38,000  Level FlightAware ADS-B
Tue 05:59:54 AM 37.0760 -101.5630 279° West 438 504 38,000  Level FlightAware ADS-B
Tue 06:00:31 AM 37.0880 -101.6580 279° West 438 504 38,000  Level FlightAware ADS-B
Tue 06:01:04 AM 37.0980 -101.7380 279° West 439 505 38,000  Level FlightAware ADS-B
Tue 06:01:38 AM 37.1090 -101.8240 279° West 440 506 38,000  Level FlightAware ADS-B
Tue 06:02:15 AM 37.1210 -101.9200 279° West 440 506 38,000  Level FlightAware ADS-B
Tue 06:02:50 AM 37.1320 -102.0050 279° West 440 506 38,000  Level FlightAware ADS-B
Tue 06:03:24 AM 37.1430 -102.0930 279° West 441 507 38,000  Level FlightAware ADS-B
Tue 06:03:59 AM 37.1530 -102.1820 278° West 441 507 38,000  Level FlightAware ADS-B
Tue 06:04:36 AM 37.1650 -102.2750 279° West 441 507 38,000  Level FlightAware ADS-B
Tue 06:05:11 AM 37.1750 -102.3640 278° West 441 507 38,000  Level FlightAware ADS-B
Tue 06:05:43 AM 37.1850 -102.4450 279° West 441 507 38,000  Level FlightAware ADS-B
Tue 06:06:20 AM 37.1960 -102.5360 279° West 441 507 38,000  Level FlightAware ADS-B
Tue 06:06:56 AM 37.2070 -102.6300 278° West 441 507 38,000  Level FlightAware ADS-B
Tue 06:07:32 AM 37.2170 -102.7180 278° West 442 509 38,000  Level FlightAware ADS-B
Tue 06:08:04 AM 37.2270 -102.8020 279° West 442 509 38,000  Level FlightAware ADS-B
Tue 06:08:41 AM 37.2380 -102.8930 279° West 442 509 38,000  Level FlightAware ADS-B
Tue 06:09:14 AM 37.2480 -102.9770 279° West 443 510 38,000  Level FlightAware ADS-B
Tue 06:09:50 AM 37.2580 -103.0710 278° West 443 510 38,000  Level FlightAware ADS-B
Tue 06:10:26 AM 37.2690 -103.1600 279° West 444 511 38,000  Level FlightAware ADS-B
Tue 06:11:02 AM 37.2790 -103.2550 278° West 445 512 38,000  Level FlightAware ADS-B
Tue 06:11:13 AM 37.2820 -103.2800 279° West 445 512 38,000  Level FlightAware ADS-B
Tue 06:12:09 AM 37.2980 -103.4240 278° West 447 514 38,000  Level FlightAware ADS-B
Tue 06:12:47 AM 37.3090 -103.5240 278° West 449 517 38,000  Level FlightAware ADS-B
Tue 06:13:18 AM 37.3180 -103.6010 278° West 449 517 38,000  Level FlightAware ADS-B
Tue 06:13:55 AM 37.3280 -103.6990 277° West 450 518 38,000  Level FlightAware ADS-B
Tue 06:14:30 AM 37.3380 -103.7900 278° West 450 518 38,000  Level FlightAware ADS-B
Tue 06:15:06 AM 37.3480 -103.8830 278° West 450 518 38,000  Level FlightAware ADS-B
Tue 06:15:36 AM 37.3560 -103.9610 277° West 451 519 38,000  Level FlightAware ADS-B
Tue 06:16:14 AM 37.3670 -104.0600 278° West 450 518 38,000  Level FlightAware ADS-B
Tue 06:16:49 AM 37.3760 -104.1510 277° West 450 518 38,000  Level FlightAware ADS-B
Tue 06:17:11 AM 37.3819 -104.2028 278° West 452 520 38,000  Level FlightAware ADS-B (KANK)
Tue 06:17:41 AM 37.3896 -104.2756 278° West 453 521 38,000  Level FlightAware ADS-B (KANK)
Tue 06:18:12 AM 37.3966 -104.3461 277° West 453 521 38,000  Level FlightAware ADS-B (KANK)
Tue 06:18:46 AM 37.4080 -104.4555 277° West 453 521 38,000  Level FlightAware ADS-B (KANK)
Tue 06:19:25 AM 37.4182 -104.5573 277° West 454 522 38,000  Level FlightAware ADS-B (KANK)
Tue 06:20:07 AM 37.4289 -104.6617 277° West 455 524 38,000  Level FlightAware ADS-B (KANK)
Tue 06:20:45 AM 37.4394 -104.7664 277° West 453 521 38,000  Level FlightAware ADS-B (KANK)
Tue 06:21:28 AM 37.4498 -104.8735 277° West 452 520 38,000  Level FlightAware ADS-B (KANK)
Tue 06:22:05 AM 37.4600 -104.9750 277° West 452 520 38,000  Level FlightAware ADS-B
Tue 06:22:38 AM 37.4680 -105.0586 277° West 452 520 38,000  Level FlightAware ADS-B (KANK)
Tue 06:23:17 AM 37.4779 -105.1628 277° West 453 521 38,000  Level FlightAware ADS-B (KANK)
Tue 06:23:48 AM 37.4853 -105.2388 277° West 453 521 38,000  Level FlightAware ADS-B (KANK)
Tue 06:24:18 AM 37.4932 -105.3225 277° West 453 521 38,000  Level FlightAware ADS-B (KANK)
Tue 06:25:00 AM 37.5030 -105.4270 277° West 453 521 38,000  Level FlightAware ADS-B (KANK)
Tue 06:25:35 AM 37.5122 -105.5237 277° West 453 521 38,000  Level FlightAware ADS-B (KANK)
Tue 06:26:12 AM 37.5211 -105.6208 277° West 453 521 38,000  Level FlightAware ADS-B (KANK)
Tue 06:26:45 AM 37.5285 -105.7020 277° West 455 524 38,000  Level FlightAware ADS-B (KGUC)
Tue 06:27:20 AM 37.5368 -105.7940 277° West 455 524 38,000  Level FlightAware ADS-B (KGUC)
Tue 06:27:51 AM 37.5446 -105.8808 276° West 454 522 38,000  Level FlightAware ADS-B (KGUC)
Tue 06:28:18 AM 37.5509 -105.9517 276° West 454 522 38,000  Level FlightAware ADS-B (KGUC)
Tue 06:28:50 AM 37.5585 -106.0355 277° West 454 522 38,000  Level FlightAware ADS-B
Tue 06:29:20 AM 37.5654 -106.1143 276° West 455 524 38,000  Level FlightAware ADS-B
Tue 06:29:50 AM 37.5723 -106.1932 276° West 455 524 38,000  Level FlightAware ADS-B
Tue 06:30:20 AM 37.5791 -106.2722 276° West 456 525 38,000  Level FlightAware ADS-B
Tue 06:30:51 AM 37.5859 -106.3514 276° West 455 524 38,000  Level FlightAware ADS-B (KGUC)
Tue 06:31:21 AM 37.5928 -106.4329 276° West 455 524 38,000  Level FlightAware ADS-B (KGUC)
Tue 06:31:51 AM 37.5992 -106.5090 276° West 454 522 38,000  Level FlightAware ADS-B
Tue 06:32:21 AM 37.6059 -106.5906 276° West 454 522 38,000  Level FlightAware ADS-B
Tue 06:32:52 AM 37.6124 -106.6695 276° West 454 522 38,000  Level FlightAware ADS-B
Tue 06:33:22 AM 37.6191 -106.7485 276° West 455 524 38,000  Level FlightAware ADS-B
Tue 06:33:52 AM 37.6258 -106.8304 276° West 455 524 38,000  Level FlightAware ADS-B (KGUC)
Tue 06:34:30 AM 37.6339 -106.9307 276° West 455 524 38,000  Level FlightAware ADS-B (KANK)
Tue 06:35:00 AM 37.6401 -107.0071 276° West 455 524 38,000  Level FlightAware ADS-B (KANK)
Tue 06:35:31 AM 37.6468 -107.0915 276° West 455 524 38,000  Level FlightAware ADS-B
Tue 06:36:01 AM 37.6530 -107.1705 276° West 455 524 38,000  Level FlightAware ADS-B
Tue 06:36:31 AM 37.6591 -107.2498 276° West 455 524 38,000  Level FlightAware ADS-B
Tue 06:37:01 AM 37.6652 -107.3291 276° West 456 525 38,000  Level FlightAware ADS-B
Tue 06:37:31 AM 37.6713 -107.4082 276° West 456 525 38,000  Level FlightAware ADS-B
Tue 06:38:01 AM 37.6774 -107.4877 276° West 457 526 38,000  Level FlightAware ADS-B
Tue 06:38:31 AM 37.6834 -107.5674 275° West 457 526 38,000  Level FlightAware ADS-B
Tue 06:39:01 AM 37.6894 -107.6470 275° West 457 526 38,000  Level FlightAware ADS-B (KGUC)
Tue 06:39:32 AM 37.6954 -107.7291 275° West 457 526 38,000  Level FlightAware ADS-B (KGUC)
Tue 06:40:02 AM 37.7012 -107.8088 275° West 458 527 38,000  Level FlightAware ADS-B (KGUC)
Tue 06:40:34 AM 37.7066 -107.8860 275° West 459 528 38,000  Level FlightAware ADS-B (KGUC)
Tue 06:41:06 AM 37.7134 -107.9790 275° West 459 528 38,000  Level FlightAware ADS-B
Tue 06:41:36 AM 37.7192 -108.0589 275° West 459 528 38,000  Level FlightAware ADS-B
Tue 06:42:06 AM 37.7249 -108.1360 275° West 458 527 38,000 100 Level FlightAware ADS-B
Tue 06:42:36 AM 37.7305 -108.2185 275° West 458 527 38,100 100 Climbing FlightAware ADS-B
Tue 06:43:06 AM 37.7360 -108.2984 275° West 458 527 38,100 -100 Level FlightAware ADS-B
Tue 06:43:36 AM 37.7414 -108.3781 275° West 458 527 38,000 -100 Descending FlightAware ADS-B
Tue 06:44:06 AM 37.7466 -108.4554 275° West 458 527 38,000  Level FlightAware ADS-B
Tue 06:44:36 AM 37.7520 -108.5378 275° West 458 527 38,000  Level FlightAware ADS-B
Tue 06:45:13 AM 37.7585 -108.6363 275° West 459 528 38,000  Level FlightAware ADS-B (KGUC)
Tue 06:45:43 AM 37.7639 -108.7164 275° West 459 528 38,000  Level FlightAware ADS-B (KGUC)
Tue 06:46:13 AM 37.7683 -108.7857 275° West 459 528 38,000  Level FlightAware ADS-B (KGUC)
Tue 06:46:43 AM 37.7742 -108.8763 275° West 460 529 38,000  Level FlightAware ADS-B (KGUC)
Tue 06:47:14 AM 37.7795 -108.9592 275° West 459 528 38,000  Level FlightAware ADS-B (KGUC)
Tue 06:47:45 AM 37.7847 -109.0423 275° West 461 531 38,000  Level FlightAware ADS-B
Tue 06:48:15 AM 37.7896 -109.1228 274° West 462 532 38,000  Level FlightAware ADS-B
Tue 06:48:45 AM 37.7946 -109.2035 274° West 463 533 38,000  Level FlightAware ADS-B
Tue 06:49:15 AM 37.7995 -109.2846 274° West 464 534 38,000  Level FlightAware ADS-B
Tue 06:49:47 AM 37.8038 -109.3574 274° West 464 534 38,000  Level FlightAware ADS-B (KGUC)
Tue 06:50:22 AM 37.8099 -109.4605 274° West 465 535 38,000  Level FlightAware ADS-B (KGUC)
Tue 06:50:55 AM 37.8155 -109.5552 274° West 466 536 38,000 94 Level FlightAware ADS-B
Tue 06:51:26 AM 37.8204 -109.6394 274° West 466 536 38,100  Climbing FlightAware ADS-B
Tue 06:51:56 AM 37.8250 -109.7208 274° West 466 536 38,000 -100 Descending FlightAware ADS-B
Tue 06:52:26 AM 37.8295 -109.8023 274° West 467 537 38,000  Level FlightAware ADS-B
Tue 06:52:56 AM 37.8340 -109.8839 274° West 467 537 38,000  Level FlightAware ADS-B
Tue 06:53:26 AM 37.8385 -109.9657 274° West 467 537 38,000  Level FlightAware ADS-B
Tue 06:53:56 AM 37.8429 -110.0474 274° West 467 537 38,000  Level FlightAware ADS-B
Tue 06:54:26 AM 37.8472 -110.1289 274° West 467 537 38,000  Level FlightAware ADS-B
Tue 06:54:56 AM 37.8515 -110.2105 274° West 467 537 38,000  Level FlightAware ADS-B
Tue 06:55:33 AM 37.8569 -110.3113 274° West 468 539 38,000  Level FlightAware ADS-B (KGUC)
Tue 06:56:03 AM 37.8608 -110.3878 274° West 468 539 38,000  Level FlightAware ADS-B (KGUC)
Tue 06:56:36 AM 37.8656 -110.4807 274° West 469 540 38,000  Level FlightAware ADS-B
Tue 06:57:14 AM 37.8765 -110.5863 278° West 469 540 38,000  Level FlightAware ADS-B
Tue 06:57:46 AM 37.8861 -110.6703 278° West 469 540 38,000  Level FlightAware ADS-B
Tue 06:58:24 AM 37.8977 -110.7762 278° West 470 541 38,000  Level FlightAware ADS-B (KGUC)
Tue 06:58:55 AM 37.9072 -110.8604 278° West 470 541 38,000  Level FlightAware ADS-B
Tue 06:59:25 AM 37.9160 -110.9420 278° West 470 541 38,000  Level FlightAware ADS-B
Tue 06:59:39 AM 37.9052 -110.8415 98° East 470 541 38,000  Level FlightAware ADS-B (KGUC)
Tue 07:00:13 AM 37.9312 -111.0731 278° West 472 543 38,000  Level FlightAware ADS-B (KGUC)
Tue 07:00:43 AM 37.9401 -111.1549 278° West 472 543 38,000  Level FlightAware ADS-B (KGUC)
Tue 07:01:13 AM 37.9492 -111.2370 278° West 472 543 38,000  Level FlightAware ADS-B (KGUC)
Tue 07:01:43 AM 37.9574 -111.3137 278° West 471 542 38,000  Level FlightAware ADS-B (KGUC)
Tue 07:02:13 AM 37.9667 -111.4012 278° West 472 543 38,000  Level FlightAware ADS-B (KGUC)
Tue 07:02:56 AM 37.9790 -111.5160 278° West 472 543 38,000  Level FlightAware ADS-B
Tue 07:03:00 AM 37.9806 -111.5297 279° West 472 543 38,000  Level FlightAware ADS-B (KGUC)
Tue 07:03:32 AM 37.9900 -111.6150 278° West 473 544 38,000  Level FlightAware ADS-B
Tue 07:04:04 AM 37.9991 -111.7052 277° West 473 544 38,000  Level FlightAware ADS-B (KGUC)
Tue 07:04:40 AM 38.0090 -111.8010 277° West 473 544 38,000  Level FlightAware ADS-B
Tue 07:05:16 AM 38.0200 -111.9030 278° West 472 543 38,000  Level FlightAware ADS-B
Tue 07:05:48 AM 38.0290 -111.9910 277° West 473 544 38,000  Level FlightAware ADS-B
Tue 07:06:09 AM 38.0347 -112.0490 277° West 474 545 38,000  Level FlightAware ADS-B
Tue 07:07:05 AM 38.0490 -112.1890 277° West 473 544 38,000  Level FlightAware ADS-B
Tue 07:07:41 AM 38.0570 -112.2730 277° West 473 544 38,000  Level FlightAware ADS-B
Tue 07:08:17 AM 38.0650 -112.3580 277° West 473 544 38,000  Level FlightAware ADS-B
Tue 07:08:54 AM 38.0730 -112.4440 277° West 473 544 38,000  Level FlightAware ADS-B
Tue 07:09:28 AM 38.0810 -112.5240 277° West 473 544 38,000  Level FlightAware ADS-B
Tue 07:10:04 AM 38.0890 -112.6090 277° West 473 544 38,000  Level FlightAware ADS-B
Tue 07:10:40 AM 38.0970 -112.6930 277° West 473 544 38,000  Level FlightAware ADS-B
Tue 07:11:04 AM 38.1030 -112.7490 278° West 473 544 38,000  Level FlightAware ADS-B
Tue 07:11:53 AM 38.1140 -112.8640 277° West 473 544 38,000  Level FlightAware ADS-B
Tue 07:12:12 AM 38.1329 -113.0505 277° West 477 549 38,000 100 Level FlightAware ADS-B
Tue 07:12:53 AM 38.1433 -113.1645 277° West 478 550 38,100  Climbing FlightAware ADS-B
Tue 07:13:23 AM 38.1511 -113.2481 277° West 478 550 38,000 -80 Descending FlightAware ADS-B
Tue 07:14:08 AM 38.1621 -113.3735 276° West 479 551 38,000  Level FlightAware ADS-B
Tue 07:14:43 AM 38.1703 -113.4630 277° West 479 551 38,000  Level FlightAware ADS-B
Tue 07:15:25 AM 38.1814 -113.5889 276° West 480 552 38,000 65 Level FlightAware ADS-B
Tue 07:16:16 AM 38.1937 -113.7285 276° West 480 552 38,100  Climbing FlightAware ADS-B
Tue 07:16:46 AM 38.2012 -113.8152 276° West 480 552 38,000 -92 Descending FlightAware ADS-B
Tue 07:17:21 AM 38.2094 -113.9104 276° West 480 552 38,000  Level FlightAware ADS-B
Tue 07:17:51 AM 38.2169 -113.9972 276° West 480 552 38,000  Level FlightAware ADS-B
Tue 07:18:26 AM 38.2249 -114.0926 276° West 481 554 38,000  Level FlightAware ADS-B
Tue 07:19:15 AM 38.2320 -114.1810 276° West 479 551 38,000  Level FlightAware ADS-B
Tue 07:19:51 AM 38.2390 -114.2660 276° West 479 551 38,000  Level FlightAware ADS-B
Tue 07:20:28 AM 38.2460 -114.3550 276° West 479 551 38,000  Level FlightAware ADS-B
Tue 07:21:05 AM 38.2530 -114.4430 276° West 479 551 38,000  Level FlightAware ADS-B
Tue 07:21:41 AM 38.2600 -114.5290 276° West 479 551 38,000  Level FlightAware ADS-B
Tue 07:22:17 AM 38.2680 -114.6150 277° West 479 551 38,000  Level FlightAware ADS-B
Tue 07:22:53 AM 38.2750 -114.7010 276° West 479 551 38,000  Level FlightAware ADS-B
Tue 07:23:29 AM 38.2820 -114.7870 276° West 479 551 38,000  Level FlightAware ADS-B
Tue 07:24:06 AM 38.2890 -114.8750 276° West 479 551 38,000  Level FlightAware ADS-B
Tue 07:24:41 AM 38.2960 -114.9580 276° West 479 551 38,000  Level FlightAware ADS-B
Tue 07:25:17 AM 38.3030 -115.0440 276° West 479 551 38,000  Level FlightAware ADS-B
Tue 07:25:53 AM 38.3100 -115.1300 276° West 479 551 38,000  Level FlightAware ADS-B
Tue 07:26:29 AM 38.3170 -115.2160 276° West 479 551 38,000  Level FlightAware ADS-B
Tue 07:27:06 AM 38.3240 -115.3050 276° West 479 551 38,000  Level FlightAware ADS-B
Tue 07:31:32 AM 38.4100 -116.2940 277° West 38,000  Level FlightAware ADS-B
Tue 07:31:57 AM 38.4030 -116.3580 262° West 480 552 38,000  Level FlightAware ADS-B
Tue 07:32:32 AM 38.3920 -116.4680 263° West 482 555 38,000  Level FlightAware ADS-B
Tue 07:33:07 AM 38.3820 -116.5630 262° West 482 555 38,000  Level FlightAware ADS-B
Tue 07:33:48 AM 38.3690 -116.6790 262° West 483 556 38,000  Level FlightAware ADS-B
Tue 07:34:23 AM 38.3580 -116.7770 262° West 483 556 38,000  Level FlightAware ADS-B
Tue 07:34:59 AM 38.3440 -116.8780 260° West 484 557 38,000  Level FlightAware ADS-B
Tue 07:35:33 AM 38.3330 -116.9680 261° West 485 558 38,000  Level FlightAware ADS-B
Tue 07:36:16 AM 38.3180 -117.0760 260° West 485 558 38,000  Level FlightAware ADS-B
Tue 07:36:52 AM 38.3060 -117.1620 260° West 485 558 38,000 88 Level FlightAware ADS-B
Tue 07:37:24 AM 38.2920 -117.2850 262° West 489 563 38,100 85 Climbing FlightAware ADS-B
Tue 07:38:03 AM 38.2770 -117.3960 260° West 490 564 38,100  Level FlightAware ADS-B
Tue 07:38:33 AM 38.2660 -117.4840 261° West 490 564 38,100  Level FlightAware ADS-B
Tue 07:39:08 AM 38.2530 -117.5780 260° West 489 563 38,100 -85 Level FlightAware ADS-B
Tue 07:39:44 AM 38.2380 -117.6850 260° West 691 795 38,000 -80 Descending FlightAware ADS-B
Tue 07:40:23 AM 38.2230 -117.8020 261° West 490 564 38,000  Level FlightAware ADS-B
Tue 07:40:58 AM 38.2090 -117.9010 260° West 489 563 38,000  Level FlightAware ADS-B
Tue 07:41:31 AM 38.1970 -117.9920 261° West 490 564 38,000  Level FlightAware ADS-B
Tue 07:42:05 AM 38.1840 -118.0850 260° West 489 563 38,000  Level FlightAware ADS-B
Tue 07:43:00 AM 38.1630 -118.2300 260° West 489 563 38,000  Level FlightAware ADS-B
Tue 07:43:36 AM 38.1500 -118.3160 259° West 489 563 38,000  Level FlightAware ADS-B
Tue 07:44:12 AM 38.1360 -118.4020 258° West 489 563 38,000  Level FlightAware ADS-B
Tue 07:44:48 AM 38.1230 -118.4890 259° West 489 563 38,000  Level FlightAware ADS-B
Tue 07:45:25 AM 38.1100 -118.5780 260° West 489 563 38,000  Level FlightAware ADS-B
Tue 07:46:00 AM 38.0900 -118.7530 262° West 487 560 38,000  Level FlightAware ADS-B
Tue 07:46:32 AM 38.0760 -118.8430 259° West 488 562 38,000  Level FlightAware ADS-B
Tue 07:47:09 AM 38.0620 -118.9440 260° West 489 563 38,000  Level FlightAware ADS-B
Tue 07:47:44 AM 38.0470 -119.0430 259° West 489 563 38,000  Level FlightAware ADS-B
Tue 07:48:17 AM 38.0340 -119.1360 260° West 490 564 38,000  Level FlightAware ADS-B
Tue 07:48:29 AM 38.0281 -119.1725 258° West 490 564 38,000  Level FlightAware ADS-B
Tue 07:49:04 AM 38.0133 -119.2715 259° West 492 566 38,000  Level FlightAware ADS-B
Tue 07:50:02 AM 37.9890 -119.4330 259° West 492 566 38,000 68 Level FlightAware ADS-B
Tue 07:50:32 AM 37.9759 -119.5205 259° West 493 567 38,100 83 Climbing FlightAware ADS-B
Tue 07:51:14 AM 37.9579 -119.6391 259° West 491 565 38,100  Level FlightAware ADS-B
Tue 07:51:44 AM 37.9450 -119.7240 259° West 488 562 38,100 -716 Level FlightAware ADS-B
Tue 07:52:21 AM 37.9300 -119.8230 259° West 478 550 37,300 -2,432 Descending FlightAware ADS-B
Tue 07:52:58 AM 37.9140 -119.9250 259° West 485 558 35,100 -3,370 Descending FlightAware ADS-B
Tue 07:53:34 AM 37.8980 -120.0290 259° West 484 557 33,200 -3,211 Descending FlightAware ADS-B
Tue 07:54:09 AM 37.8820 -120.1260 258° West 482 555 31,300 -2,912 Descending FlightAware ADS-B
Tue 07:54:42 AM 37.8680 -120.2130 259° West 473 544 29,900 -2,455 Descending FlightAware ADS-B
Tue 07:55:15 AM 37.8540 -120.3040 259° West 460 529 28,600 -2,451 Descending FlightAware ADS-B
Tue 07:55:53 AM 37.8390 -120.4010 259° West 449 517 27,000 -2,432 Descending FlightAware ADS-B
Tue 07:56:29 AM 37.8240 -120.4950 259° West 439 505 25,600 -2,382 Descending FlightAware ADS-B
Tue 07:57:01 AM 37.8110 -120.5750 258° West 432 497 24,300 -2,294 Descending FlightAware ADS-B
Tue 07:57:37 AM 37.7970 -120.6610 258° West 423 487 23,000 -2,314 Descending FlightAware ADS-B
Tue 07:58:11 AM 37.7840 -120.7450 259° West 414 476 21,600 -2,382 Descending FlightAware ADS-B
Tue 07:58:45 AM 37.7710 -120.8220 258° West 406 467 20,300 -2,333 Descending FlightAware ADS-B
Tue 07:59:23 AM 37.7570 -120.9110 259° West 391 450 18,800 -2,301 Descending FlightAware ADS-B
Tue 07:59:58 AM 37.7440 -120.9860 258° West 382 440 17,500 -2,167 Descending FlightAware ADS-B
Tue 08:00:35 AM 37.7310 -121.0680 259° West 373 429 16,200 -2,149 Descending FlightAware ADS-B
Tue 08:01:05 AM 37.7210 -121.1270 258° West 368 423 15,100 -2,250 Descending FlightAware ADS-B
Tue 08:01:39 AM 37.7090 -121.2010 258° West 364 419 13,800 -2,229 Descending FlightAware ADS-B
Tue 08:02:15 AM 37.6970 -121.2750 258° West 358 412 12,500 -1,950 Descending FlightAware ADS-B
Tue 08:02:59 AM 37.6810 -121.3660 258° West 342 394 11,200 -1,350 Descending FlightAware ADS-B
Tue 08:03:35 AM 37.6700 -121.4330 258° West 312 359 10,700 -857 Descending FlightAware ADS-B
Tue 08:04:09 AM 37.6590 -121.4900 256° West 283 326 10,200 -1,034 Descending FlightAware ADS-B
Tue 08:04:33 AM 37.6540 -121.5270 260° West 279 321 9,700 -1,227 Descending FlightAware ADS-B
Tue 08:04:53 AM 37.6490 -121.5590 259° West 278 320 9,300 -1,200 Descending FlightAware ADS-B
Tue 08:05:13 AM 37.6424 -121.5920 256° West 277 319 8,900 -1,333 Descending FlightAware ADS-B
Tue 08:05:29 AM 37.6367 -121.6170 254° West 277 319 8,500 -1,455 Descending FlightAware ADS-B
Tue 08:05:46 AM 37.6305 -121.6430 253° West 274 315 8,100 -1,091 Descending FlightAware ADS-B
Tue 08:06:02 AM 37.6244 -121.6670 252° West 273 314 7,900 -923 Descending FlightAware ADS-B
Tue 08:06:12 AM 37.6207 -121.6820 253° West 270 311 7,700 -1,154 Descending FlightAware ADS-B
Tue 08:06:28 AM 37.6147 -121.7060 252° West 265 305 7,400 -1,000 Descending FlightAware ADS-B
Tue 08:06:42 AM 37.6094 -121.7270 252° West 260 299 7,200 -1,034 Descending FlightAware ADS-B
Tue 08:06:57 AM 37.6037 -121.7480 251° West 256 295 6,900 -1,161 Descending FlightAware ADS-B
Tue 08:07:13 AM 37.5981 -121.7700 252° West 252 290 6,600 -1,161 Descending FlightAware ADS-B
Tue 08:07:28 AM 37.5928 -121.7910 252° West 249 287 6,300 -1,161 Descending FlightAware ADS-B
Tue 08:07:44 AM 37.5877 -121.8140 254° West 247 284 6,000 -1,200 Descending FlightAware ADS-B
Tue 08:08:03 AM 37.5814 -121.8400 253° West 244 281 5,600 -1,200 Descending FlightAware ADS-B
Tue 08:08:19 AM 37.5763 -121.8610 253° West 241 277 5,300 -1,161 Descending FlightAware ADS-B
Tue 08:08:34 AM 37.5714 -121.8810 253° West 238 274 5,000 -1,241 Descending FlightAware ADS-B
Tue 08:08:48 AM 37.5668 -121.9000 253° West 230 265 4,700 -1,500 Descending FlightAware ADS-B
Tue 08:08:58 AM 37.5635 -121.9120 251° West 224 258 4,400 -1,286 Descending FlightAware ADS-B
Tue 08:09:02 AM 37.5623 -121.9170 253° West 223 257 4,400 -667 Level FlightAware ADS-B
Tue 08:09:07 AM 37.5616 -121.9230 262° West 222 255 4,300 -1,333 Descending FlightAware ADS-B
Tue 08:09:11 AM 37.5616 -121.9290 270° West 222 255 4,200 -1,500 Descending FlightAware ADS-B
Tue 08:09:15 AM 37.5622 -121.9340 279° West 222 255 4,100 -1,200 Descending FlightAware ADS-B
Tue 08:09:21 AM 37.5639 -121.9410 287° West 222 255 4,000 -923 Descending FlightAware ADS-B
Tue 08:09:28 AM 37.5663 -121.9500 289° West 220 253 3,900 -1,000 Descending FlightAware ADS-B
Tue 08:09:33 AM 37.5679 -121.9560 289° West 218 251 3,800 -857 Descending FlightAware ADS-B
Tue 08:09:49 AM 37.5719 -121.9740 286° West 218 251 3,600 -938 Descending FlightAware ADS-B
Tue 08:10:05 AM 37.5770 -121.9950 287° West 219 252 3,300 -938 Descending FlightAware ADS-B
Tue 08:10:21 AM 37.5818 -122.0140 288° West 214 246 3,100 -800 Descending FlightAware ADS-B
Tue 08:10:35 AM 37.5856 -122.0300 287° West 204 235 2,900 -462 Descending FlightAware ADS-B
Tue 08:10:47 AM 37.5892 -122.0440 288° West 192 221 2,900  Level FlightAware ADS-B
Tue 08:10:53 AM 37.5921 -122.0490 306° West 187 215 2,900  Level FlightAware ADS-B
Tue 08:11:00 AM 37.5959 -122.0550 309° West 184 212 2,900  Level FlightAware ADS-B
Tue 08:11:10 AM 37.6009 -122.0640 305° West 184 212 2,900 -273 Level FlightAware ADS-B
Tue 08:11:22 AM 37.6074 -122.0740 309° West 182 209 2,800 -857 Descending FlightAware ADS-B
Tue 08:11:38 AM 37.6163 -122.0870 311° West 184 212 2,500 -1,161 Descending FlightAware ADS-B
Tue 08:11:53 AM 37.6245 -122.0990 311° West 182 209 2,200 -909 Descending FlightAware ADS-B
Tue 08:12:11 AM 37.6341 -122.1130 311° West 177 204 2,000 -909 Descending FlightAware ADS-B
Tue 08:12:26 AM 37.6421 -122.1250 310° West 169 194 1,700 -1,000 Descending FlightAware ADS-B
Tue 08:12:41 AM 37.6494 -122.1360 310° West 155 178 1,500 -692 Descending FlightAware ADS-B
Tue 08:12:52 AM 37.6542 -122.1430 311° West 151 174 1,400 -667 Descending FlightAware ADS-B
Tue 08:13:08 AM 37.6615 -122.1540 310° West 152 175 1,200 -800 Descending FlightAware ADS-B
Tue 08:13:22 AM 37.6678 -122.1640 309° West 148 170 1,000 -800 Descending FlightAware ADS-B
Tue 08:13:38 AM 37.6747 -122.1740 311° West 142 163 800 -692 Descending FlightAware ADS-B
Tue 08:13:48 AM 37.6791 -122.1810 308° West 138 159 700 -667 Descending FlightAware ADS-B
Tue 08:14:05 AM 37.6861 -122.1910 311° West 141 162 500 -727 Descending FlightAware ADS-B
Tue 08:14:21 AM 37.6929 -122.2010 311° West 142 163 300 -750 Descending FlightAware ADS-B
Tue 08:14:52 AM 37.7060 -122.2210 310° West 135 155 -581 Descending FlightAware ADS-B

Login

Don't have an account? Register now (free) for customized features, flight alerts, and more!